Time;durP1;ratioP1;P1;durP2;ratioP2;P2;SDS_P1;SDS_P2;PMS_P1;PMS_P2;Temp;Humidity;BMP_temperature;BMP_pressure;BME280_temperature;BME280_humidity;BME280_pressure;Samples;Min_cycle;Max_cycle;Signal;HPM_P1;HPM_P2
2022/08/30 00:01:27;;;;;;;10.35;7.70;;;;;;;;;;4393471;32;20073;-65
2022/08/30 00:03:54;;;;;;;10.18;7.30;;;;;;;;;;4408114;32;20085;-64
2022/08/30 00:06:22;;;;;;;12.18;6.93;;;;;;;;;;4407985;32;20165;-65
2022/08/30 00:08:49;;;;;;;10.60;7.35;;;;;;;;;;4405985;32;20515;-64
2022/08/30 00:11:18;;;;;;;13.43;7.43;;;;;;;;;;4393030;32;20109;-64
2022/08/30 00:13:46;;;;;;;9.60;6.60;;;;;;;;;;4405574;32;20089;-65
2022/08/30 00:16:13;;;;;;;11.07;7.07;;;;;;;;;;4405750;32;20068;-63
2022/08/30 00:18:40;;;;;;;10.65;7.53;;;;;;;;;;4406816;32;20455;-64
2022/08/30 00:21:07;;;;;;;11.07;7.82;;;;;;;;;;4406921;32;20145;-65
2022/08/30 00:23:34;;;;;;;11.20;7.55;;;;;;;;;;4405630;32;20073;-64
2022/08/30 00:26:01;;;;;;;13.43;7.45;;;;;;;;;;4407006;32;20083;-64
2022/08/30 00:28:29;;;;;;;7.87;6.47;;;;;;;;;;4392917;32;20069;-64
2022/08/30 00:30:55;;;;;;;11.77;7.35;;;;;;;;;;4406604;32;20050;-65
2022/08/30 00:33:22;;;;;;;9.18;7.00;;;;;;;;;;4392705;32;20503;-65
2022/08/30 00:35:49;;;;;;;10.75;6.87;;;;;;;;;;4405146;32;20665;-65
2022/08/30 00:38:16;;;;;;;10.80;7.75;;;;;;;;;;4406404;32;20428;-64
2022/08/30 00:40:44;;;;;;;10.52;6.25;;;;;;;;;;4393120;32;20069;-64
2022/08/30 00:43:27;;;;;;;9.98;7.18;;;;;;;;;;4405122;32;20089;-65
2022/08/30 00:45:54;;;;;;;11.35;7.22;;;;;;;;;;4405327;32;20515;-65
2022/08/30 00:48:20;;;;;;;14.82;7.53;;;;;;;;;;4380030;32;20068;-65
2022/08/30 00:50:55;;;;;;;11.25;7.22;;;;;;;;;;4406912;32;20076;-64
2022/08/30 00:53:26;;;;;;;11.43;7.30;;;;;;;;;;4407664;32;20066;-65
2022/08/30 00:55:53;;;;;;;10.70;7.82;;;;;;;;;;4406729;32;20157;-64
2022/08/30 00:58:24;;;;;;;9.50;6.60;;;;;;;;;;4405387;32;20084;-64
2022/08/30 01:00:54;;;;;;;11.52;7.53;;;;;;;;;;4405723;32;20074;-65
2022/08/30 01:03:21;;;;;;;10.73;6.55;;;;;;;;;;4404826;32;20459;-65
2022/08/30 01:05:50;;;;;;;11.12;7.47;;;;;;;;;;4404935;32;20145;-64
2022/08/30 01:08:19;;;;;;;11.25;7.03;;;;;;;;;;4404904;32;20136;-64
2022/08/30 01:10:46;;;;;;;10.63;6.07;;;;;;;;;;4404887;32;20069;-65
2022/08/30 01:13:13;;;;;;;9.32;7.15;;;;;;;;;;4404706;32;20612;-65
2022/08/30 01:15:41;;;;;;;10.07;7.82;;;;;;;;;;4405017;32;20065;-64
2022/08/30 01:18:08;;;;;;;11.02;7.10;;;;;;;;;;4405224;32;20077;-64
2022/08/30 01:20:48;;;;;;;11.98;7.57;;;;;;;;;;4393083;32;20089;-65
2022/08/30 01:23:17;;;;;;;14.38;7.90;;;;;;;;;;4405046;32;20142;-65
2022/08/30 01:25:45;;;;;;;12.07;7.72;;;;;;;;;;4404848;32;20085;-65
2022/08/30 01:28:19;;;;;;;10.50;8.20;;;;;;;;;;4392823;32;20076;-65
2022/08/30 01:30:46;;;;;;;12.60;7.70;;;;;;;;;;4379612;32;20064;-65
2022/08/30 01:33:13;;;;;;;12.30;7.87;;;;;;;;;;4404903;32;20508;-64
2022/08/30 01:35:52;;;;;;;14.65;7.47;;;;;;;;;;4407837;32;20073;-64
2022/08/30 01:38:21;;;;;;;11.80;7.07;;;;;;;;;;4408012;32;20144;-65
2022/08/30 01:40:48;;;;;;;11.93;7.30;;;;;;;;;;4405089;32;20058;-65
2022/08/30 01:43:16;;;;;;;9.82;7.15;;;;;;;;;;4392124;32;20539;-64
2022/08/30 01:45:43;;;;;;;13.20;7.03;;;;;;;;;;4405174;32;20081;-63
2022/08/30 01:48:11;;;;;;;14.13;6.85;;;;;;;;;;4405291;32;20073;-65
2022/08/30 01:50:39;;;;;;;13.45;7.60;;;;;;;;;;4407450;32;20524;-64
2022/08/30 01:53:06;;;;;;;10.55;6.90;;;;;;;;;;4408014;32;20093;-64
2022/08/30 01:55:33;;;;;;;9.55;6.90;;;;;;;;;;4408878;32;20445;-64
2022/08/30 01:58:00;;;;;;;11.38;7.37;;;;;;;;;;4394912;32;20077;-63
2022/08/30 02:00:26;;;;;;;10.10;6.93;;;;;;;;;;4407846;32;20153;-64
2022/08/30 02:02:54;;;;;;;14.57;7.35;;;;;;;;;;4407146;32;20564;-64
2022/08/30 02:05:20;;;;;;;11.77;7.50;;;;;;;;;;4409201;32;20146;-64
2022/08/30 02:07:47;;;;;;;10.98;6.70;;;;;;;;;;4407329;32;20165;-64
2022/08/30 02:10:13;;;;;;;12.85;7.25;;;;;;;;;;4407742;32;20169;-64
2022/08/30 02:12:41;;;;;;;11.98;7.07;;;;;;;;;;4394757;32;20527;-64
2022/08/30 02:15:08;;;;;;;9.80;7.32;;;;;;;;;;4407270;32;20185;-64
2022/08/30 02:17:35;;;;;;;10.27;6.60;;;;;;;;;;4406978;32;20467;-64
2022/08/30 02:20:03;;;;;;;9.75;6.82;;;;;;;;;;4408624;32;20082;-64
2022/08/30 02:22:29;;;;;;;10.90;7.90;;;;;;;;;;4394593;32;20161;-65
2022/08/30 02:24:56;;;;;;;9.25;7.10;;;;;;;;;;4408742;32;20144;-65
2022/08/30 02:27:24;;;;;;;11.95;7.50;;;;;;;;;;4408627;32;20514;-65
2022/08/30 02:29:51;;;;;;;11.27;7.15;;;;;;;;;;4408674;32;20588;-65
2022/08/30 02:32:18;;;;;;;11.98;6.93;;;;;;;;;;4406636;32;20088;-65
2022/08/30 02:34:46;;;;;;;10.70;7.22;;;;;;;;;;4394327;32;20098;-64
2022/08/30 02:37:12;;;;;;;10.40;7.05;;;;;;;;;;4408555;32;20068;-64
2022/08/30 02:39:39;;;;;;;9.90;7.43;;;;;;;;;;4407112;32;20085;-65
2022/08/30 02:42:06;;;;;;;12.48;7.37;;;;;;;;;;4408328;32;20516;-65
2022/08/30 02:44:32;;;;;;;12.27;6.85;;;;;;;;;;4406876;32;20153;-65
2022/08/30 02:46:59;;;;;;;14.38;7.87;;;;;;;;;;4394072;32;20111;-65
2022/08/30 02:49:26;;;;;;;10.02;6.85;;;;;;;;;;4406845;32;20160;-64
2022/08/30 02:51:52;;;;;;;10.63;7.22;;;;;;;;;;4406393;32;20069;-65
2022/08/30 02:54:19;;;;;;;12.30;7.60;;;;;;;;;;4406745;32;20075;-64
2022/08/30 02:56:46;;;;;;;9.18;7.07;;;;;;;;;;4394404;32;20165;-64
2022/08/30 02:59:14;;;;;;;12.70;7.68;;;;;;;;;;4406369;32;20080;-64
2022/08/30 03:01:41;;;;;;;10.55;7.20;;;;;;;;;;4407585;32;20243;-65
2022/08/30 03:04:08;;;;;;;10.48;6.78;;;;;;;;;;4407114;32;20157;-64
2022/08/30 03:06:35;;;;;;;10.32;6.93;;;;;;;;;;4406323;32;20145;-65
2022/08/30 03:09:02;;;;;;;11.25;7.53;;;;;;;;;;4406479;32;20085;-65
2022/08/30 03:11:29;;;;;;;10.88;7.03;;;;;;;;;;4406447;32;20073;-65
2022/08/30 03:13:55;;;;;;;8.73;6.85;;;;;;;;;;4406350;32;20061;-66
2022/08/30 03:16:22;;;;;;;10.13;7.25;;;;;;;;;;4407683;32;20070;-64
2022/08/30 03:18:48;;;;;;;10.45;6.87;;;;;;;;;;4407934;32;20089;-64
2022/08/30 03:21:16;;;;;;;10.02;7.12;;;;;;;;;;4406019;32;20078;-64
2022/08/30 03:23:43;;;;;;;12.45;7.62;;;;;;;;;;4407585;32;20076;-64
2022/08/30 03:26:13;;;;;;;12.45;7.05;;;;;;;;;;4406088;32;20508;-65
2022/08/30 03:28:41;;;;;;;12.68;7.20;;;;;;;;;;4394376;32;20145;-65
2022/08/30 03:31:09;;;;;;;9.85;7.57;;;;;;;;;;4407828;32;20148;-65
2022/08/30 03:33:36;;;;;;;11.77;8.23;;;;;;;;;;4405897;32;20440;-65
2022/08/30 03:36:04;;;;;;;15.02;7.72;;;;;;;;;;4407434;32;20155;-65
2022/08/30 03:38:31;;;;;;;11.85;7.78;;;;;;;;;;4393747;32;20158;-65
2022/08/30 03:40:57;;;;;;;13.57;7.20;;;;;;;;;;4409499;32;20069;-65
2022/08/30 03:43:24;;;;;;;8.13;6.53;;;;;;;;;;4407806;32;20149;-65
2022/08/30 03:45:50;;;;;;;12.37;6.45;;;;;;;;;;4407407;32;20099;-64
2022/08/30 03:48:17;;;;;;;8.57;6.57;;;;;;;;;;4393246;32;20069;-65
2022/08/30 03:50:44;;;;;;;9.57;6.40;;;;;;;;;;4406174;32;20086;-65
2022/08/30 03:53:11;;;;;;;11.55;7.30;;;;;;;;;;4407102;32;20065;-65
2022/08/30 03:55:37;;;;;;;16.48;7.82;;;;;;;;;;4406947;32;20069;-65
2022/08/30 03:58:04;;;;;;;11.32;7.28;;;;;;;;;;4405788;32;20160;-65
2022/08/30 04:00:30;;;;;;;9.80;6.20;;;;;;;;;;4407331;32;20512;-65
2022/08/30 04:02:57;;;;;;;9.98;6.78;;;;;;;;;;4392972;32;20515;-64
2022/08/30 04:05:24;;;;;;;8.68;6.03;;;;;;;;;;4393098;32;20105;-65
2022/08/30 04:07:51;;;;;;;11.15;8.05;;;;;;;;;;4393423;32;20142;-64
2022/08/30 04:10:20;;;;;;;12.73;7.10;;;;;;;;;;4405537;32;20085;-64
2022/08/30 04:12:47;;;;;;;10.38;7.10;;;;;;;;;;4405022;32;20525;-64
2022/08/30 04:15:15;;;;;;;12.20;7.07;;;;;;;;;;4405862;32;20065;-64
2022/08/30 04:17:41;;;;;;;16.17;8.23;;;;;;;;;;4405760;32;20092;-64
2022/08/30 04:20:08;;;;;;;12.40;7.03;;;;;;;;;;4406628;32;20065;-64
2022/08/30 04:22:35;;;;;;;11.10;6.70;;;;;;;;;;4405548;32;20432;-66
2022/08/30 04:25:03;;;;;;;10.25;7.03;;;;;;;;;;4392879;32;20156;-65
2022/08/30 04:27:31;;;;;;;10.75;7.35;;;;;;;;;;4405499;32;20093;-64
2022/08/30 04:29:59;;;;;;;12.63;7.90;;;;;;;;;;4405281;32;20169;-65
2022/08/30 04:32:25;;;;;;;11.75;7.43;;;;;;;;;;4405301;32;20093;-65
2022/08/30 04:34:56;;;;;;;10.85;7.32;;;;;;;;;;4405057;32;20076;-65
2022/08/30 04:37:23;;;;;;;10.30;6.70;;;;;;;;;;4405205;32;20066;-64
2022/08/30 04:39:49;;;;;;;9.70;6.62;;;;;;;;;;4406574;32;20146;-64
2022/08/30 04:42:17;;;;;;;14.10;7.30;;;;;;;;;;4404960;32;20070;-64
2022/08/30 04:44:43;;;;;;;9.23;6.87;;;;;;;;;;4405186;32;20450;-64
2022/08/30 04:47:10;;;;;;;9.43;6.65;;;;;;;;;;4392576;32;20085;-65
2022/08/30 04:49:37;;;;;;;12.10;7.07;;;;;;;;;;4404984;32;20072;-64
2022/08/30 04:52:07;;;;;;;11.82;7.47;;;;;;;;;;4404965;32;20068;-64
2022/08/30 04:54:34;;;;;;;10.23;6.70;;;;;;;;;;4406394;32;20080;-64
2022/08/30 04:57:00;;;;;;;10.18;6.60;;;;;;;;;;4392625;32;20085;-64
2022/08/30 04:59:27;;;;;;;10.25;7.03;;;;;;;;;;4392834;32;20069;-66
2022/08/30 05:01:54;;;;;;;11.43;7.72;;;;;;;;;;4405924;32;20085;-65
2022/08/30 05:04:20;;;;;;;10.65;7.35;;;;;;;;;;4405067;32;20455;-65
2022/08/30 05:06:48;;;;;;;11.85;6.87;;;;;;;;;;4405122;32;20149;-67
2022/08/30 05:09:14;;;;;;;15.38;8.18;;;;;;;;;;4406639;32;20157;-65
2022/08/30 05:11:42;;;;;;;12.45;7.45;;;;;;;;;;4404907;32;20093;-66
2022/08/30 05:14:09;;;;;;;11.88;7.57;;;;;;;;;;4406378;32;20075;-66
2022/08/30 05:16:36;;;;;;;11.38;7.57;;;;;;;;;;4392178;32;20058;-64
2022/08/30 05:19:02;;;;;;;11.38;7.47;;;;;;;;;;4406285;32;20080;-66
2022/08/30 05:21:29;;;;;;;11.93;6.93;;;;;;;;;;4404766;32;20134;-64
2022/08/30 05:24:01;;;;;;;12.27;7.32;;;;;;;;;;4407239;32;20500;-65
2022/08/30 05:26:30;;;;;;;10.80;7.72;;;;;;;;;;4408032;32;20084;-65
2022/08/30 05:28:57;;;;;;;10.95;6.87;;;;;;;;;;4407640;32;20239;-65
2022/08/30 05:31:26;;;;;;;13.80;7.57;;;;;;;;;;4407644;32;20088;-66
2022/08/30 05:33:54;;;;;;;10.43;8.00;;;;;;;;;;4407600;32;20158;-66
2022/08/30 05:36:25;;;;;;;11.57;7.65;;;;;;;;;;4407643;32;20069;-65
2022/08/30 05:38:53;;;;;;;13.00;8.45;;;;;;;;;;4395053;32;20081;-66
2022/08/30 05:41:22;;;;;;;11.45;7.62;;;;;;;;;;4407565;32;20073;-64
2022/08/30 05:43:51;;;;;;;10.65;8.10;;;;;;;;;;4407614;32;20076;-64
2022/08/30 05:46:18;;;;;;;14.30;8.75;;;;;;;;;;4394821;32;20148;-65
2022/08/30 05:48:45;;;;;;;12.50;8.63;;;;;;;;;;4407601;32;20084;-67
2022/08/30 05:51:21;;;;;;;13.25;8.88;;;;;;;;;;4407615;32;20066;-68
2022/08/30 05:53:49;;;;;;;11.60;8.07;;;;;;;;;;4407432;32;20523;-66
2022/08/30 05:56:18;;;;;;;11.07;7.90;;;;;;;;;;4408649;32;20554;-68
2022/08/30 05:58:44;;;;;;;13.55;8.68;;;;;;;;;;4394854;32;20185;-64
2022/08/30 06:01:26;;;;;;;12.68;9.15;;;;;;;;;;4407194;32;20096;-65
2022/08/30 06:03:54;;;;;;;11.70;8.93;;;;;;;;;;4409008;32;20459;-65
2022/08/30 06:06:21;;;;;;;15.65;9.05;;;;;;;;;;4407181;32;20490;-64
2022/08/30 06:08:49;;;;;;;11.80;8.40;;;;;;;;;;4394705;32;20136;-64
2022/08/30 06:11:18;;;;;;;11.68;8.35;;;;;;;;;;4394723;32;20066;-66
2022/08/30 06:13:45;;;;;;;10.27;8.10;;;;;;;;;;4407060;32;20084;-66
2022/08/30 06:16:12;;;;;;;13.27;7.80;;;;;;;;;;4394814;32;20149;-66
2022/08/30 06:18:39;;;;;;;12.43;7.62;;;;;;;;;;4395253;32;20511;-64
2022/08/30 06:21:06;;;;;;;10.35;8.15;;;;;;;;;;4411943;32;20073;-65
2022/08/30 06:23:33;;;;;;;13.02;8.52;;;;;;;;;;4395134;32;20073;-65
2022/08/30 06:26:05;;;;;;;12.10;8.20;;;;;;;;;;4406850;32;20075;-64
2022/08/30 06:28:32;;;;;;;10.57;7.55;;;;;;;;;;4408333;32;20089;-65
2022/08/30 06:30:58;;;;;;;13.05;8.18;;;;;;;;;;4406817;32;20160;-65
2022/08/30 06:33:25;;;;;;;13.27;7.90;;;;;;;;;;4408377;32;20074;-65
2022/08/30 06:35:52;;;;;;;10.65;8.23;;;;;;;;;;4393660;32;20065;-66
2022/08/30 06:38:18;;;;;;;10.75;7.50;;;;;;;;;;4394605;32;20172;-66
2022/08/30 06:40:45;;;;;;;12.02;7.90;;;;;;;;;;4408390;32;20085;-65
2022/08/30 06:43:12;;;;;;;12.60;7.95;;;;;;;;;;4406727;32;20092;-64
2022/08/30 06:45:38;;;;;;;11.10;7.95;;;;;;;;;;4406658;32;20093;-64
2022/08/30 06:48:05;;;;;;;10.55;7.57;;;;;;;;;;4406715;32;20088;-66
2022/08/30 06:50:32;;;;;;;10.02;7.53;;;;;;;;;;4394441;32;20150;-68
2022/08/30 06:53:04;;;;;;;10.27;6.70;;;;;;;;;;4408059;32;20165;-70
2022/08/30 06:55:32;;;;;;;12.40;8.45;;;;;;;;;;4406772;32;20096;-68
2022/08/30 06:58:00;;;;;;;11.55;7.60;;;;;;;;;;4406613;32;20085;-69
2022/08/30 07:00:27;;;;;;;12.93;8.63;;;;;;;;;;4406311;32;20066;-68
2022/08/30 07:02:54;;;;;;;10.27;7.90;;;;;;;;;;4393377;32;20629;-68
2022/08/30 07:05:22;;;;;;;11.60;8.50;;;;;;;;;;4407730;32;20455;-64
2022/08/30 07:07:52;;;;;;;14.45;7.32;;;;;;;;;;4406564;32;20134;-68
2022/08/30 07:10:20;;;;;;;11.68;8.02;;;;;;;;;;4406390;32;20136;-69
2022/08/30 07:12:47;;;;;;;10.98;8.27;;;;;;;;;;4393775;32;20077;-69
2022/08/30 07:15:14;;;;;;;12.35;8.13;;;;;;;;;;4393559;32;20417;-69
2022/08/30 07:20:26;;;;;;;14.45;7.40;;;;;;;;;;4406386;32;20485;-63
2022/08/30 07:22:52;;;;;;;10.88;7.32;;;;;;;;;;4393549;32;20074;-62
2022/08/30 07:25:19;;;;;;;9.63;6.95;;;;;;;;;;4394064;32;20164;-68
2022/08/30 07:27:46;;;;;;;10.07;7.07;;;;;;;;;;4407548;32;20073;-65
2022/08/30 07:30:13;;;;;;;12.18;6.87;;;;;;;;;;4407422;32;20163;-64
2022/08/30 07:32:40;;;;;;;8.48;6.68;;;;;;;;;;4381290;32;20085;-64
2022/08/30 07:35:06;;;;;;;12.10;7.20;;;;;;;;;;4406111;32;20070;-65
2022/08/30 07:37:33;;;;;;;8.68;6.05;;;;;;;;;;4407346;32;20533;-63
2022/08/30 07:40:00;;;;;;;13.38;6.65;;;;;;;;;;4405941;32;20587;-64
2022/08/30 07:42:27;;;;;;;8.52;6.18;;;;;;;;;;4406060;32;20081;-64
2022/08/30 07:44:53;;;;;;;11.65;6.57;;;;;;;;;;4393283;32;20100;-65
2022/08/30 07:47:20;;;;;;;10.27;6.32;;;;;;;;;;4407087;32;20472;-65
2022/08/30 07:49:46;;;;;;;7.10;5.87;;;;;;;;;;4405975;32;20085;-65
2022/08/30 07:52:13;;;;;;;8.75;6.40;;;;;;;;;;4407170;32;20088;-64
2022/08/30 07:54:40;;;;;;;11.18;6.53;;;;;;;;;;4393110;32;20121;-65
2022/08/30 07:57:06;;;;;;;9.48;6.15;;;;;;;;;;4407002;32;20075;-67
2022/08/30 07:59:33;;;;;;;8.55;5.62;;;;;;;;;;4407008;32;20114;-64
2022/08/30 08:02:00;;;;;;;10.55;5.62;;;;;;;;;;4405368;32;20085;-64
2022/08/30 08:04:27;;;;;;;8.88;5.75;;;;;;;;;;4407121;32;20508;-65
2022/08/30 08:06:55;;;;;;;8.88;5.37;;;;;;;;;;4406873;32;20499;-65
2022/08/30 08:09:21;;;;;;;9.48;5.47;;;;;;;;;;4406104;32;20081;-67
2022/08/30 08:11:48;;;;;;;10.90;4.82;;;;;;;;;;4407204;32;20141;-65
2022/08/30 08:14:15;;;;;;;9.57;5.12;;;;;;;;;;4392752;32;20081;-66
2022/08/30 08:16:43;;;;;;;7.65;4.87;;;;;;;;;;4406723;32;20095;-66
2022/08/30 08:19:11;;;;;;;8.52;4.53;;;;;;;;;;4406702;32;20144;-66
2022/08/30 08:21:38;;;;;;;9.23;5.32;;;;;;;;;;4392959;32;20124;-65
2022/08/30 08:24:05;;;;;;;6.90;4.53;;;;;;;;;;4405425;32;20073;-66
2022/08/30 08:26:36;;;;;;;6.50;4.25;;;;;;;;;;4405141;32;20136;-65
2022/08/30 08:29:03;;;;;;;6.72;4.75;;;;;;;;;;4405240;32;20076;-66
2022/08/30 08:31:30;;;;;;;10.75;4.68;;;;;;;;;;4405367;32;20456;-67
2022/08/30 08:34:01;;;;;;;9.45;5.10;;;;;;;;;;4392878;32;20156;-67
2022/08/30 08:36:30;;;;;;;8.45;5.05;;;;;;;;;;4405209;32;20617;-66
2022/08/30 08:38:56;;;;;;;7.75;4.95;;;;;;;;;;4406411;32;20154;-67
2022/08/30 08:41:58;;;;;;;6.72;4.78;;;;;;;;;;4405255;32;20121;-67
2022/08/30 08:44:46;;;;;;;7.18;4.37;;;;;;;;;;4376316;32;20142;-67
2022/08/30 08:47:15;;;;;;;8.73;4.93;;;;;;;;;;4392501;32;20081;-68
2022/08/30 08:49:44;;;;;;;9.55;5.10;;;;;;;;;;4405015;32;20097;-67
2022/08/30 08:55:17;;;;;;;12.27;5.15;;;;;;;;;;4407902;32;20441;-71
2022/08/30 08:57:45;;;;;;;9.25;4.20;;;;;;;;;;4406477;32;20082;-68
2022/08/30 09:00:13;;;;;;;8.50;4.47;;;;;;;;;;4404950;32;20100;-70
2022/08/30 09:02:45;;;;;;;6.60;4.40;;;;;;;;;;4404561;32;20078;-67
2022/08/30 09:05:17;;;;;;;11.30;4.75;;;;;;;;;;4405108;32;20440;-67
2022/08/30 09:07:49;;;;;;;7.62;4.62;;;;;;;;;;4379871;32;20077;-67
2022/08/30 09:10:16;;;;;;;16.15;5.72;;;;;;;;;;4404877;32;20094;-67
2022/08/30 09:12:45;;;;;;;11.32;4.97;;;;;;;;;;4406369;32;20184;-68
2022/08/30 09:15:22;;;;;;;11.00;5.35;;;;;;;;;;4392431;32;20078;-67
2022/08/30 09:17:58;;;;;;;9.77;5.20;;;;;;;;;;4404664;32;20085;-68
2022/08/30 09:20:33;;;;;;;11.85;4.75;;;;;;;;;;4392080;32;20074;-67
2022/08/30 09:23:22;;;;;;;10.63;4.80;;;;;;;;;;4404666;32;20085;-67
2022/08/30 09:26:01;;;;;;;12.13;5.10;;;;;;;;;;4406156;32;20168;-67
2022/08/30 09:28:31;;;;;;;7.72;4.95;;;;;;;;;;4404759;32;20583;-67
2022/08/30 09:31:25;;;;;;;14.95;5.93;;;;;;;;;;4405980;32;20511;-68
2022/08/30 09:34:00;;;;;;;10.10;4.45;;;;;;;;;;4404866;32;20073;-67
2022/08/30 09:36:30;;;;;;;10.40;5.13;;;;;;;;;;4404805;32;20077;-68
2022/08/30 09:39:00;;;;;;;14.68;5.32;;;;;;;;;;4404412;32;20085;-67
2022/08/30 09:41:48;;;;;;;10.35;4.78;;;;;;;;;;4404556;32;20084;-68
2022/08/30 09:44:24;;;;;;;10.02;4.35;;;;;;;;;;4379620;32;20093;-67
2022/08/30 09:46:54;;;;;;;11.15;5.03;;;;;;;;;;4379948;32;20072;-66
2022/08/30 09:49:36;;;;;;;6.47;4.65;;;;;;;;;;4392492;32;20072;-66
2022/08/30 09:52:32;;;;;;;8.82;4.90;;;;;;;;;;4391903;32;20142;-66
2022/08/30 09:55:33;;;;;;;10.85;4.90;;;;;;;;;;4392314;32;20078;-68
2022/08/30 09:58:28;;;;;;;9.23;4.35;;;;;;;;;;4404644;32;20080;-67
2022/08/30 10:01:09;;;;;;;9.82;5.30;;;;;;;;;;4404864;32;20103;-67
2022/08/30 10:03:47;;;;;;;12.25;4.45;;;;;;;;;;4404212;32;20089;-68
2022/08/30 10:06:36;;;;;;;9.85;4.35;;;;;;;;;;4406149;32;20650;-68
2022/08/30 10:09:14;;;;;;;14.13;4.55;;;;;;;;;;4404996;32;20073;-68
2022/08/30 10:12:01;;;;;;;7.50;3.72;;;;;;;;;;4409088;32;20508;-68
2022/08/30 10:14:45;;;;;;;;;;;;;;;;;;4383019;32;20488;-67
2022/08/30 10:17:38;;;;;;;8.23;4.30;;;;;;;;;;4407431;32;19961;-68
2022/08/30 10:20:25;;;;;;;11.20;4.72;;;;;;;;;;4394642;32;20103;-67
2022/08/30 10:23:18;;;;;;;19.05;5.18;;;;;;;;;;4407304;32;20157;-68
2022/08/30 10:25:53;;;;;;;9.00;4.25;;;;;;;;;;4408137;32;20077;-68
2022/08/30 10:28:35;;;;;;;12.80;3.95;;;;;;;;;;4394388;32;20552;-67
2022/08/30 10:31:12;;;;;;;8.63;3.75;;;;;;;;;;4394403;32;20145;-67
2022/08/30 10:33:47;;;;;;;8.63;4.20;;;;;;;;;;4407020;32;20075;-67
2022/08/30 10:36:15;;;;;;;10.50;4.22;;;;;;;;;;4394294;32;20471;-68
2022/08/30 10:38:47;;;;;;;14.77;4.47;;;;;;;;;;4394310;32;20161;-67
2022/08/30 10:41:32;;;;;;;10.68;4.22;;;;;;;;;;4394211;32;20073;-68
2022/08/30 10:44:20;;;;;;;10.50;4.28;;;;;;;;;;4408038;32;20096;-68
2022/08/30 10:46:46;;;;;;;12.50;4.50;;;;;;;;;;4406822;32;20156;-68
2022/08/30 10:49:25;;;;;;;10.63;3.70;;;;;;;;;;4406826;32;20161;-68
2022/08/30 10:52:18;;;;;;;10.10;3.83;;;;;;;;;;4394118;32;20093;-68
2022/08/30 10:54:52;;;;;;;10.27;3.40;;;;;;;;;;4406763;32;20518;-68
2022/08/30 10:57:19;;;;;;;9.00;4.10;;;;;;;;;;4406644;32;20112;-68
2022/08/30 10:59:55;;;;;;;12.93;3.50;;;;;;;;;;4406537;32;20069;-69
2022/08/30 11:02:54;;;;;;;11.23;3.40;;;;;;;;;;4407532;32;20089;-69
2022/08/30 11:05:37;;;;;;;12.02;3.62;;;;;;;;;;4406276;32;20085;-67
2022/08/30 11:08:41;;;;;;;6.85;2.55;;;;;;;;;;4393760;32;20464;-68
2022/08/30 11:11:18;;;;;;;7.43;2.87;;;;;;;;;;4407822;32;20081;-68
2022/08/30 11:13:45;;;;;;;4.75;2.67;;;;;;;;;;4407997;32;20073;-68
2022/08/30 11:16:15;;;;;;;7.40;2.90;;;;;;;;;;4394114;32;20092;-68
2022/08/30 11:18:55;;;;;;;8.68;2.80;;;;;;;;;;4393700;32;20081;-67
2022/08/30 11:21:31;;;;;;;7.30;2.50;;;;;;;;;;4406618;32;20093;-68
2022/08/30 11:24:08;;;;;;;10.35;2.70;;;;;;;;;;4406460;32;20591;-67
2022/08/30 11:26:47;;;;;;;8.00;2.80;;;;;;;;;;4406310;32;20182;-67
2022/08/30 11:29:28;;;;;;;4.90;2.60;;;;;;;;;;4407911;32;20512;-67
2022/08/30 11:32:20;;;;;;;6.15;2.95;;;;;;;;;;4409239;32;20084;-68
2022/08/30 11:34:46;;;;;;;7.20;2.55;;;;;;;;;;4399599;32;20077;-67
2022/08/30 11:37:41;;;;;;;7.80;3.47;;;;;;;;;;4407254;32;20080;-68
2022/08/30 11:40:23;;;;;;;7.30;2.90;;;;;;;;;;4393459;32;20081;-67
2022/08/30 11:42:52;;;;;;;7.68;2.97;;;;;;;;;;4407200;32;20073;-68
2022/08/30 11:45:26;;;;;;;9.68;2.85;;;;;;;;;;4393096;32;20169;-67
2022/08/30 11:47:52;;;;;;;7.22;2.75;;;;;;;;;;4405645;32;20060;-68
2022/08/30 11:50:19;;;;;;;7.43;2.75;;;;;;;;;;4407040;32;20065;-68
2022/08/30 11:52:45;;;;;;;8.02;2.40;;;;;;;;;;4406147;32;20080;-68
2022/08/30 11:55:25;;;;;;;6.55;2.30;;;;;;;;;;4407764;32;20528;-68
2022/08/30 11:58:24;;;;;;;7.28;2.00;;;;;;;;;;4408485;32;20064;-67
2022/08/30 12:01:32;;;;;;;8.57;2.10;;;;;;;;;;4381002;32;20069;-68
2022/08/30 12:04:19;;;;;;;6.47;2.12;;;;;;;;;;4405467;32;20153;-68
2022/08/30 12:06:57;;;;;;;2.85;1.85;;;;;;;;;;4393185;32;20174;-67
2022/08/30 12:09:24;;;;;;;6.93;2.03;;;;;;;;;;4408491;32;20257;-67
2022/08/30 12:12:04;;;;;;;6.22;2.53;;;;;;;;;;4406837;32;20073;-67
2022/08/30 12:14:37;;;;;;;4.15;1.92;;;;;;;;;;4406063;32;20085;-68
2022/08/30 12:20:10;;;;;;;3.87;2.15;;;;;;;;;;4405485;32;20093;-68
2022/08/30 12:22:39;;;;;;;6.87;1.95;;;;;;;;;;4392820;32;20166;-67
2022/08/30 12:25:16;;;;;;;3.60;1.85;;;;;;;;;;4405665;32;20099;-68
2022/08/30 12:27:43;;;;;;;2.62;1.87;;;;;;;;;;4406603;32;20158;-67
2022/08/30 12:30:11;;;;;;;3.20;1.90;;;;;;;;;;4406576;32;20088;-68
2022/08/30 12:32:46;;;;;;;4.35;2.50;;;;;;;;;;4404702;32;20077;-68
2022/08/30 12:35:24;;;;;;;7.05;2.30;;;;;;;;;;4392634;32;20078;-67
2022/08/30 12:38:00;;;;;;;2.95;2.10;;;;;;;;;;4392375;32;20512;-68
2022/08/30 12:40:30;;;;;;;5.93;2.15;;;;;;;;;;4405009;32;20471;-67
2022/08/30 12:43:00;;;;;;;8.18;2.37;;;;;;;;;;4404911;32;20080;-67
2022/08/30 12:45:31;;;;;;;5.47;2.12;;;;;;;;;;4405064;32;20093;-68
2022/08/30 12:48:14;;;;;;;5.10;2.80;;;;;;;;;;4404951;32;20088;-68
2022/08/30 12:50:52;;;;;;;6.15;2.22;;;;;;;;;;4405228;32;20524;-68
2022/08/30 12:53:30;;;;;;;4.30;2.15;;;;;;;;;;4404896;32;20065;-68
2022/08/30 12:56:00;;;;;;;9.68;2.33;;;;;;;;;;4392775;32;20088;-67
2022/08/30 12:58:54;;;;;;;11.70;2.47;;;;;;;;;;4406281;32;20167;-68
2022/08/30 13:01:26;;;;;;;5.57;2.58;;;;;;;;;;4401836;32;20125;-69
2022/08/30 13:03:59;;;;;;;9.18;2.45;;;;;;;;;;4405970;32;20069;-67
2022/08/30 13:06:42;;;;;;;4.55;2.20;;;;;;;;;;4406457;32;20073;-68
2022/08/30 13:09:10;;;;;;;13.18;3.15;;;;;;;;;;4406380;32;20502;-68
2022/08/30 13:11:37;;;;;;;7.07;2.95;;;;;;;;;;4405038;32;20089;-68
2022/08/30 13:14:32;;;;;;;6.95;2.67;;;;;;;;;;4406331;32;20089;-68
2022/08/30 13:17:08;;;;;;;7.62;2.50;;;;;;;;;;4400705;32;20488;-67
2022/08/30 13:19:40;;;;;;;7.87;2.50;;;;;;;;;;4404740;32;20101;-67
2022/08/30 13:22:25;;;;;;;10.20;2.80;;;;;;;;;;4404510;32;20084;-68
2022/08/30 13:24:52;;;;;;;7.97;3.10;;;;;;;;;;4406597;32;20157;-69
2022/08/30 13:27:19;;;;;;;7.75;3.22;;;;;;;;;;4406235;32;20085;-67
2022/08/30 13:29:46;;;;;;;12.27;3.45;;;;;;;;;;4405025;32;20085;-68
2022/08/30 13:32:13;;;;;;;11.95;3.42;;;;;;;;;;4404720;32;20503;-68
2022/08/30 13:34:40;;;;;;;7.55;3.70;;;;;;;;;;4404980;32;20084;-68
2022/08/30 13:37:09;;;;;;;11.38;3.55;;;;;;;;;;4392368;32;20077;-68
2022/08/30 13:39:35;;;;;;;8.90;3.45;;;;;;;;;;4393108;32;20499;-68
2022/08/30 13:42:02;;;;;;;9.65;3.35;;;;;;;;;;4405326;32;20583;-68
2022/08/30 13:44:29;;;;;;;10.40;3.53;;;;;;;;;;4407274;32;20076;-68
2022/08/30 13:46:56;;;;;;;8.32;3.65;;;;;;;;;;4409462;32;20168;-68
2022/08/30 13:49:34;;;;;;;10.05;3.83;;;;;;;;;;4408915;32;20097;-68
2022/08/30 13:52:02;;;;;;;11.75;3.58;;;;;;;;;;4408106;32;20104;-69
2022/08/30 13:54:29;;;;;;;12.98;3.92;;;;;;;;;;4407439;32;20161;-68
2022/08/30 13:56:56;;;;;;;9.95;3.50;;;;;;;;;;4394937;32;20081;-68
2022/08/30 13:59:23;;;;;;;6.07;3.40;;;;;;;;;;4394737;32;20081;-68
2022/08/30 14:01:51;;;;;;;8.32;3.33;;;;;;;;;;4407192;32;20145;-68
2022/08/30 14:04:18;;;;;;;9.07;3.80;;;;;;;;;;4407678;32;20077;-67
2022/08/30 14:06:44;;;;;;;8.93;3.92;;;;;;;;;;4408697;32;20095;-67
2022/08/30 14:09:13;;;;;;;10.32;3.75;;;;;;;;;;4407408;32;20082;-67
2022/08/30 14:11:40;;;;;;;11.25;3.97;;;;;;;;;;4408733;32;20070;-67
2022/08/30 14:14:07;;;;;;;10.45;3.87;;;;;;;;;;4408941;32;20543;-67
2022/08/30 14:16:35;;;;;;;8.50;3.65;;;;;;;;;;4395293;32;20085;-68
2022/08/30 14:19:02;;;;;;;10.93;3.87;;;;;;;;;;4407268;32;20092;-68
2022/08/30 14:21:29;;;;;;;8.35;3.50;;;;;;;;;;4408313;32;20170;-67
2022/08/30 14:23:56;;;;;;;11.02;3.78;;;;;;;;;;4406881;32;20080;-68
2022/08/30 14:26:28;;;;;;;6.47;4.22;;;;;;;;;;4407284;32;20080;-68
2022/08/30 14:28:55;;;;;;;11.73;4.07;;;;;;;;;;4394265;32;20085;-68
2022/08/30 14:31:22;;;;;;;8.55;3.47;;;;;;;;;;4407096;32;20088;-68
2022/08/30 14:33:48;;;;;;;8.52;3.67;;;;;;;;;;4394244;32;20081;-67
2022/08/30 14:36:15;;;;;;;10.43;3.97;;;;;;;;;;4406999;32;20092;-67
2022/08/30 14:38:43;;;;;;;11.80;3.83;;;;;;;;;;4394241;32;20086;-68
2022/08/30 14:41:10;;;;;;;9.80;3.85;;;;;;;;;;4408238;32;20081;-68
2022/08/30 14:43:39;;;;;;;12.40;4.15;;;;;;;;;;4406633;32;20088;-68
2022/08/30 14:46:06;;;;;;;10.30;3.75;;;;;;;;;;4410221;32;20088;-68
2022/08/30 14:48:32;;;;;;;19.35;4.85;;;;;;;;;;4410954;32;20085;-68
2022/08/30 14:50:59;;;;;;;9.35;3.65;;;;;;;;;;4406867;32;20545;-68
2022/08/30 14:53:26;;;;;;;7.90;3.92;;;;;;;;;;4408049;32;20088;-68
2022/08/30 14:55:52;;;;;;;11.07;4.30;;;;;;;;;;4407906;32;20072;-68
2022/08/30 14:58:19;;;;;;;15.40;3.72;;;;;;;;;;4407787;32;20160;-68
2022/08/30 15:00:52;;;;;;;11.65;4.80;;;;;;;;;;4408201;32;20526;-68
2022/08/30 15:03:19;;;;;;;6.00;4.10;;;;;;;;;;4407727;32;20097;-68
2022/08/30 15:05:50;;;;;;;11.35;3.87;;;;;;;;;;4407867;32;20095;-68